createdAt,value
2018-02-12T00:01:49.493Z,5.45
2018-02-12T00:04:17.013Z,6.22
2018-02-12T00:06:44.670Z,7.05
2018-02-12T00:09:12.210Z,5.60
2018-02-12T00:11:39.772Z,6.45
2018-02-12T00:14:07.825Z,5.62
2018-02-12T00:16:35.430Z,5.85
2018-02-12T00:19:03.758Z,5.80
2018-02-12T00:21:31.365Z,5.40
2018-02-12T00:23:58.900Z,7.10
2018-02-12T00:26:26.412Z,5.80
2018-02-12T00:28:53.902Z,5.55
2018-02-12T00:31:22.215Z,6.25
2018-02-12T00:33:49.706Z,5.82
2018-02-12T00:36:17.231Z,6.90
2018-02-12T00:38:44.725Z,6.60
2018-02-12T00:41:12.255Z,6.28
2018-02-12T00:43:39.746Z,5.72
2018-02-12T00:46:07.270Z,6.95
2018-02-12T00:48:35.520Z,6.68
2018-02-12T00:51:03.097Z,5.47
2018-02-12T00:53:30.552Z,6.68
2018-02-12T00:55:58.054Z,7.05
2018-02-12T00:58:25.582Z,7.30
2018-02-12T01:00:53.102Z,6.85
2018-02-12T01:03:20.671Z,6.20
2018-02-12T01:05:48.189Z,7.55
2018-02-12T01:08:16.462Z,6.40
2018-02-12T01:10:44.756Z,6.80
2018-02-12T01:13:13.026Z,6.80
2018-02-12T01:15:41.308Z,7.80
2018-02-12T01:18:10.165Z,6.37
2018-02-12T01:20:37.684Z,7.72
2018-02-12T01:23:05.190Z,8.32
2018-02-12T01:25:32.714Z,7.95
2018-02-12T01:28:00.290Z,7.28
2018-02-12T01:30:27.810Z,7.55
2018-02-12T01:32:55.364Z,7.45
2018-02-12T01:35:22.838Z,7.53
2018-02-12T01:37:51.838Z,6.53
2018-02-12T01:40:19.362Z,6.55
2018-02-12T01:42:47.027Z,6.45
2018-02-12T01:45:14.522Z,8.45
2018-02-12T01:47:42.045Z,6.62
2018-02-12T01:50:19.440Z,7.12
2018-02-12T01:52:46.945Z,8.05
2018-02-12T01:55:15.209Z,7.20
2018-02-12T01:57:42.726Z,6.18
2018-02-12T02:00:10.256Z,5.55
2018-02-12T02:02:37.745Z,6.53
2018-02-12T02:05:05.254Z,7.32
2018-02-12T02:07:32.776Z,6.72
2018-02-12T02:10:00.284Z,7.72
2018-02-12T02:12:27.795Z,7.15
2018-02-12T02:14:55.297Z,7.57
2018-02-12T02:17:22.805Z,6.82
2018-02-12T02:19:51.075Z,6.57
2018-02-12T02:22:18.611Z,7.55
2018-02-12T02:24:46.094Z,6.18
2018-02-12T02:27:15.110Z,7.68
2018-02-12T02:29:43.422Z,5.90
2018-02-12T02:32:12.012Z,6.68
2018-02-12T02:34:39.555Z,6.65
2018-02-12T02:37:07.802Z,7.00
2018-02-12T02:39:35.702Z,7.10
2018-02-12T02:42:03.963Z,6.78
2018-02-12T02:44:31.473Z,6.68
2018-02-12T02:47:00.584Z,6.12
2018-02-12T02:49:28.169Z,6.03
2018-02-12T02:51:55.758Z,6.78
2018-02-12T02:54:24.513Z,6.28
2018-02-12T02:56:52.038Z,6.90
2018-02-12T02:59:20.301Z,6.82
2018-02-12T03:01:49.312Z,6.32
2018-02-12T03:04:17.769Z,7.10
2018-02-12T03:06:45.259Z,6.10
2018-02-12T03:09:13.521Z,6.60
2018-02-12T03:11:41.017Z,7.30
2018-02-12T03:14:08.502Z,6.18
2018-02-12T03:16:36.028Z,6.70
2018-02-12T03:19:04.288Z,7.07
2018-02-12T03:21:31.792Z,6.35
2018-02-12T03:23:59.289Z,6.75
2018-02-12T03:26:26.811Z,6.68
2018-02-12T03:28:54.308Z,6.93
2018-02-12T03:31:21.825Z,7.20
2018-02-12T03:33:51.085Z,7.18
2018-02-12T03:36:18.607Z,7.45
2018-02-12T03:38:46.123Z,6.95
2018-02-12T03:41:13.630Z,6.50
2018-02-12T03:43:41.177Z,6.00
2018-02-12T03:46:11.344Z,6.40
2018-02-12T03:48:38.852Z,6.28
2018-02-12T03:51:07.162Z,7.05
2018-02-12T03:53:34.697Z,7.30
2018-02-12T03:56:02.954Z,5.95
2018-02-12T03:58:30.801Z,6.28
2018-02-12T04:00:58.288Z,6.43
2018-02-12T04:03:25.841Z,7.15
2018-02-12T04:05:53.334Z,6.50
2018-02-12T04:08:20.837Z,6.05
2018-02-12T04:10:48.355Z,6.00
2018-02-12T04:13:15.853Z,7.05
2018-02-12T04:15:43.411Z,6.10
2018-02-12T04:18:11.685Z,6.18
2018-02-12T04:20:39.953Z,5.90
2018-02-12T04:23:07.495Z,6.12
2018-02-12T04:25:34.981Z,6.32
2018-02-12T04:28:03.248Z,6.60
2018-02-12T04:30:30.810Z,6.18
2018-02-12T04:32:58.309Z,7.80
2018-02-12T04:35:25.801Z,6.95
2018-02-12T04:37:53.296Z,6.00
2018-02-12T04:40:20.816Z,6.90
2018-02-12T04:42:48.348Z,5.97
2018-02-12T04:45:16.615Z,6.72
2018-02-12T04:47:44.893Z,6.82
2018-02-12T04:50:13.170Z,6.10
2018-02-12T04:52:42.197Z,6.40
2018-02-12T04:55:10.473Z,5.80
2018-02-12T04:57:38.749Z,6.40
2018-02-12T05:00:07.011Z,6.05
2018-02-12T05:02:34.511Z,5.97
2018-02-12T05:05:02.000Z,5.95
2018-02-12T05:07:29.513Z,5.25
2018-02-12T05:09:57.756Z,6.75
2018-02-12T05:12:25.318Z,6.82
2018-02-12T05:14:52.780Z,6.75
2018-02-12T05:17:20.284Z,7.20
2018-02-12T05:19:48.527Z,5.85
2018-02-12T05:22:16.013Z,6.90
2018-02-12T05:24:43.519Z,6.68
2018-02-12T05:27:11.061Z,5.70
2018-02-12T05:29:39.394Z,5.47
2018-02-12T05:32:07.641Z,5.75
2018-02-12T05:34:35.162Z,5.55
2018-02-12T05:37:02.651Z,6.85
2018-02-12T05:39:31.014Z,5.95
2018-02-12T05:42:00.027Z,5.80
2018-02-12T05:44:28.283Z,6.60
2018-02-12T05:46:55.811Z,5.87
2018-02-12T05:49:23.312Z,5.72
2018-02-12T05:51:50.810Z,5.82
2018-02-12T05:54:18.357Z,6.60
2018-02-12T05:56:46.622Z,6.07
2018-02-12T05:59:14.127Z,6.30
2018-02-12T06:01:41.622Z,6.90
2018-02-12T06:04:09.129Z,7.57
2018-02-12T06:06:37.403Z,6.75
2018-02-12T06:09:07.507Z,6.95
2018-02-12T06:11:35.782Z,6.32
2018-02-12T06:14:03.290Z,6.47
2018-02-12T06:16:30.800Z,7.30
2018-02-12T06:18:58.321Z,7.05
2018-02-12T06:21:25.829Z,6.35
2018-02-12T06:23:53.341Z,6.70
2018-02-12T06:26:22.024Z,5.75
2018-02-12T06:28:50.308Z,6.95
2018-02-12T06:31:17.873Z,6.62
2018-02-12T06:33:46.589Z,6.72
2018-02-12T06:36:14.942Z,6.53
2018-02-12T06:38:43.288Z,6.85
2018-02-12T06:41:10.817Z,7.43
2018-02-12T06:43:38.347Z,6.80
2018-02-12T06:46:06.627Z,7.00
2018-02-12T06:48:34.931Z,7.22
2018-02-12T06:51:02.432Z,7.60
2018-02-12T06:53:29.926Z,7.60
2018-02-12T06:55:58.205Z,6.65
2018-02-12T06:58:25.740Z,7.78
2018-02-12T07:00:53.281Z,7.05
2018-02-12T07:03:20.771Z,7.30
2018-02-12T07:05:48.560Z,7.28
2018-02-12T07:08:16.080Z,6.50
2018-02-12T07:10:43.600Z,7.37
2018-02-12T07:13:11.877Z,6.87
2018-02-12T07:15:40.151Z,6.62
2018-02-12T07:18:07.655Z,6.40
2018-02-12T07:20:35.180Z,6.47
2018-02-12T07:23:03.454Z,7.20
2018-02-12T07:25:31.765Z,6.95
2018-02-12T07:28:00.071Z,6.00
2018-02-12T07:30:27.563Z,7.18
2018-02-12T07:32:55.088Z,8.48
2018-02-12T07:35:22.649Z,8.00
2018-02-12T07:37:50.276Z,7.40
2018-02-12T07:40:18.619Z,7.40
2018-02-12T07:42:46.116Z,8.45
2018-02-12T07:45:13.637Z,10.05
2018-02-12T07:47:41.183Z,11.60
2018-02-12T07:50:08.696Z,12.00
2018-02-12T07:52:36.223Z,11.90
2018-02-12T07:55:03.755Z,11.00
2018-02-12T07:57:32.045Z,10.95
2018-02-12T07:59:59.989Z,9.35
2018-02-12T08:02:27.504Z,8.45
2018-02-12T08:04:55.068Z,8.90
2018-02-12T08:07:22.590Z,8.60
2018-02-12T08:09:50.877Z,8.43
2018-02-12T08:12:19.184Z,8.43
2018-02-12T08:14:46.715Z,8.73
2018-02-12T08:17:15.021Z,7.43
2018-02-12T08:19:42.653Z,6.65
2018-02-12T08:22:10.974Z,7.07
2018-02-12T08:24:38.512Z,8.43
2018-02-12T08:27:06.854Z,8.02
2018-02-12T08:29:34.402Z,7.50
2018-02-12T08:32:02.074Z,8.70
2018-02-12T08:34:30.058Z,7.82
2018-02-12T08:36:59.795Z,9.52
2018-02-12T08:39:28.313Z,8.50
2018-02-12T08:41:55.842Z,9.68
2018-02-12T08:44:23.776Z,8.70
2018-02-12T08:46:52.125Z,8.88
2018-02-12T08:49:20.393Z,8.45
2018-02-12T08:51:48.678Z,8.70
2018-02-12T08:54:17.060Z,8.73
2018-02-12T08:56:45.323Z,8.63
2018-02-12T08:59:12.871Z,8.20
2018-02-12T09:01:40.395Z,8.00
2018-02-12T09:04:07.906Z,7.78
2018-02-12T09:06:35.468Z,8.88
2018-02-12T09:09:03.182Z,8.02
2018-02-12T09:11:30.763Z,7.40
2018-02-12T09:13:59.401Z,8.75
2018-02-12T09:16:27.029Z,8.55
2018-02-12T09:18:54.820Z,8.77
2018-02-12T09:21:22.362Z,8.10
2018-02-12T09:23:49.927Z,7.00
2018-02-12T09:26:17.422Z,7.95
2018-02-12T09:28:44.914Z,7.85
2018-02-12T09:31:13.195Z,6.50
2018-02-12T09:33:41.486Z,6.93
2018-02-12T09:36:09.794Z,6.80
2018-02-12T09:38:37.288Z,6.87
2018-02-12T09:41:04.825Z,7.75
2018-02-12T09:43:32.388Z,7.65
2018-02-12T09:45:59.946Z,8.35
2018-02-12T09:48:27.521Z,8.52
2018-02-12T09:50:55.744Z,7.70
2018-02-12T09:53:24.053Z,9.32
2018-02-12T09:55:51.790Z,8.52
2018-02-12T09:58:19.670Z,9.00
2018-02-12T10:00:48.156Z,8.43
2018-02-12T10:03:16.429Z,8.55
2018-02-12T10:05:45.474Z,8.00
2018-02-12T10:08:13.000Z,8.45
2018-02-12T10:10:41.273Z,9.02
2018-02-12T10:13:09.546Z,7.93
2018-02-12T10:15:37.113Z,8.57
2018-02-12T10:18:04.628Z,7.87
2018-02-12T10:20:32.140Z,8.73
2018-02-12T10:22:59.648Z,8.10
2018-02-12T10:25:27.183Z,7.87
2018-02-12T10:27:55.535Z,7.27
2018-02-12T10:30:23.083Z,7.03
2018-02-12T10:32:50.609Z,7.97
2018-02-12T10:35:18.945Z,8.17
2018-02-12T10:37:46.553Z,7.43
2018-02-12T10:40:14.073Z,8.05
2018-02-12T10:42:41.646Z,8.37
2018-02-12T10:45:09.134Z,8.20
2018-02-12T10:47:37.413Z,8.52
2018-02-12T10:50:05.846Z,7.20
2018-02-12T10:52:33.383Z,9.90
2018-02-12T10:55:00.936Z,7.40
2018-02-12T10:57:29.336Z,9.17
2018-02-12T10:59:56.841Z,8.50
2018-02-12T11:02:24.369Z,8.67
2018-02-12T11:04:51.865Z,8.40
2018-02-12T11:07:19.371Z,7.83
2018-02-12T11:09:46.890Z,8.90
2018-02-12T11:12:14.404Z,8.53
2018-02-12T11:14:41.949Z,8.00
2018-02-12T11:17:10.489Z,7.60
2018-02-12T11:19:38.037Z,7.57
2018-02-12T11:22:05.623Z,7.18
2018-02-12T11:24:33.132Z,5.73
2018-02-12T11:27:01.412Z,5.93
2018-02-12T11:29:28.919Z,6.00
2018-02-12T11:31:56.403Z,6.20
2018-02-12T11:34:23.914Z,5.70
2018-02-12T11:36:52.182Z,5.27
2018-02-12T11:39:20.461Z,5.50
2018-02-12T11:41:48.349Z,5.00
2018-02-12T11:44:16.672Z,5.20
2018-02-12T11:46:44.183Z,6.23
2018-02-12T11:49:12.458Z,6.00
2018-02-12T11:51:40.032Z,6.03
2018-02-12T11:54:07.652Z,5.73
2018-02-12T11:56:35.210Z,6.20
2018-02-12T11:59:02.861Z,6.50
2018-02-12T12:01:30.400Z,6.07
2018-02-12T12:03:58.693Z,5.70
2018-02-12T12:06:26.273Z,6.03
2018-02-12T12:08:53.843Z,6.33
2018-02-12T12:11:21.377Z,6.40
2018-02-12T12:13:49.636Z,6.70
2018-02-12T12:16:17.921Z,6.53
2018-02-12T12:18:45.429Z,5.23
2018-02-12T12:21:12.952Z,6.10
2018-02-12T12:23:41.228Z,5.50
2018-02-12T12:26:09.494Z,5.50
2018-02-12T12:28:36.979Z,5.30
2018-02-12T12:31:05.279Z,4.40
2018-02-12T12:33:32.814Z,5.07
2018-02-12T12:36:01.105Z,5.33
2018-02-12T12:38:29.367Z,5.40
2018-02-12T12:40:56.905Z,4.87
2018-02-12T12:43:24.414Z,6.30
2018-02-12T12:45:52.725Z,5.13
2018-02-12T12:48:20.243Z,5.43
2018-02-12T12:50:48.557Z,4.97
2018-02-12T12:53:16.077Z,5.10
2018-02-12T12:55:43.642Z,4.57
2018-02-12T12:58:12.662Z,5.17
2018-02-12T13:00:40.928Z,5.23
2018-02-12T13:03:08.428Z,3.47
2018-02-12T13:05:35.961Z,3.70
2018-02-12T13:08:03.442Z,3.87
2018-02-12T13:10:31.004Z,4.53
2018-02-12T13:12:59.277Z,3.70
2018-02-12T13:15:27.614Z,3.80
2018-02-12T13:17:55.116Z,4.53
2018-02-12T13:20:23.407Z,3.70
2018-02-12T13:22:51.706Z,4.03
2018-02-12T13:25:19.274Z,4.20
2018-02-12T13:27:46.781Z,3.23
2018-02-12T13:30:14.272Z,4.03
2018-02-12T13:32:42.556Z,3.20
2018-02-12T13:35:10.813Z,3.13
2018-02-12T13:37:38.343Z,3.97
2018-02-12T13:40:05.847Z,3.13
2018-02-12T13:42:34.166Z,2.97
2018-02-12T13:45:02.477Z,3.20
2018-02-12T13:47:30.016Z,3.53
2018-02-12T13:49:57.524Z,2.57
2018-02-12T13:52:25.033Z,3.70
2018-02-12T13:54:52.633Z,3.10
2018-02-12T13:57:20.124Z,3.40
2018-02-12T13:59:47.649Z,2.47
2018-02-12T14:02:15.163Z,3.20
2018-02-12T14:04:43.468Z,2.97
2018-02-12T14:07:10.982Z,3.53
2018-02-12T14:09:39.447Z,2.70
2018-02-12T14:12:07.957Z,3.63
2018-02-12T14:14:35.442Z,3.30
2018-02-12T14:17:02.987Z,3.70
2018-02-12T14:19:30.492Z,3.40
2018-02-12T14:21:58.086Z,2.60
2018-02-12T14:24:25.630Z,2.60
2018-02-12T14:26:53.136Z,3.17
2018-02-12T14:29:22.062Z,2.80
2018-02-12T14:31:50.385Z,3.00
2018-02-12T14:34:17.876Z,3.33
2018-02-12T14:36:45.393Z,3.23
2018-02-12T14:39:13.576Z,3.17
2018-02-12T14:41:41.090Z,3.60
2018-02-12T14:44:08.600Z,3.13
2018-02-12T14:46:36.299Z,4.10
2018-02-12T14:49:03.824Z,3.00
2018-02-12T14:51:31.332Z,3.40
2018-02-12T14:53:58.871Z,3.67
2018-02-12T14:56:26.353Z,3.03
2018-02-12T14:58:53.887Z,2.93
2018-02-12T15:01:22.081Z,3.87
2018-02-12T15:03:49.652Z,3.80
2018-02-12T15:06:17.180Z,3.70
2018-02-12T15:08:44.678Z,4.07
2018-02-12T15:11:12.155Z,3.20
2018-02-12T15:13:39.700Z,3.57
2018-02-12T15:16:07.292Z,3.40
2018-02-12T15:18:34.783Z,3.37
2018-02-12T15:21:03.079Z,3.50
2018-02-12T15:23:30.634Z,3.20
2018-02-12T15:25:58.159Z,3.97
2018-02-12T15:28:25.920Z,4.00
2018-02-12T15:30:53.484Z,3.90
2018-02-12T15:33:21.010Z,3.07
2018-02-12T15:35:48.626Z,3.70
2018-02-12T15:38:16.144Z,4.28
2018-02-12T15:40:58.656Z,4.10
2018-02-12T15:43:26.213Z,4.87
2018-02-12T15:45:53.775Z,4.00
2018-02-12T15:48:21.322Z,3.37
2018-02-12T15:50:49.608Z,4.10
2018-02-12T15:53:17.102Z,3.60
2018-02-12T15:55:44.729Z,3.87
2018-02-12T15:58:13.038Z,4.28
2018-02-12T16:00:40.599Z,3.53
2018-02-12T16:03:08.100Z,4.50
2018-02-12T16:05:35.621Z,3.42
2018-02-12T16:08:03.139Z,5.07
2018-02-12T16:10:30.634Z,4.40
2018-02-12T16:12:58.398Z,4.25
2018-02-12T16:15:26.688Z,2.90
2018-02-12T16:17:54.197Z,2.20
2018-02-12T16:20:21.677Z,2.60
2018-02-12T16:22:49.257Z,2.53
2018-02-12T16:25:16.869Z,2.53
2018-02-12T16:27:45.339Z,3.00
2018-02-12T16:30:13.029Z,4.93
2018-02-12T16:32:40.560Z,3.72
2018-02-12T16:35:08.105Z,4.70
2018-02-12T16:37:36.463Z,3.92
2018-02-12T16:40:03.985Z,4.78
2018-02-12T16:42:31.492Z,4.60
2018-02-12T16:44:59.018Z,4.72
2018-02-12T16:47:26.561Z,5.57
2018-02-12T16:49:54.077Z,6.32
2018-02-12T16:52:21.589Z,4.87
2018-02-12T16:54:49.121Z,5.57
2018-02-12T16:57:16.604Z,5.18
2018-02-12T16:59:44.876Z,6.60
2018-02-12T17:02:13.140Z,4.80
2018-02-12T17:04:40.643Z,5.55
2018-02-12T17:07:08.141Z,4.75
2018-02-12T17:09:35.704Z,4.90
2018-02-12T17:12:03.225Z,6.32
2018-02-12T17:14:31.505Z,5.57
2018-02-12T17:16:59.816Z,5.00
2018-02-12T17:19:27.358Z,5.75
2018-02-12T17:21:54.870Z,5.95
2018-02-12T17:24:22.373Z,6.12
2018-02-12T17:26:50.637Z,5.85
2018-02-12T17:29:18.897Z,6.00
2018-02-12T17:31:46.397Z,6.25
2018-02-12T17:34:14.685Z,5.00
2018-02-12T17:36:42.928Z,5.53
2018-02-12T17:39:10.421Z,5.85
2018-02-12T17:41:38.688Z,5.53
2018-02-12T17:44:07.004Z,5.50
2018-02-12T17:46:34.562Z,5.00
2018-02-12T17:49:02.090Z,4.75
2018-02-12T17:51:29.619Z,4.72
2018-02-12T17:53:58.074Z,5.15
2018-02-12T17:56:25.644Z,5.65
2018-02-12T17:58:53.167Z,3.97
2018-02-12T18:01:20.757Z,5.30
2018-02-12T18:03:49.058Z,4.97
2018-02-12T18:06:16.622Z,6.28
2018-02-12T18:08:44.111Z,5.10
2018-02-12T18:11:11.614Z,5.15
2018-02-12T18:13:39.920Z,4.32
2018-02-12T18:16:07.426Z,5.65
2018-02-12T18:18:34.949Z,4.70
2018-02-12T18:21:02.513Z,4.25
2018-02-12T18:23:30.025Z,4.30
2018-02-12T18:25:57.661Z,5.18
2018-02-12T18:28:25.202Z,5.25
2018-02-12T18:30:52.767Z,5.60
2018-02-12T18:33:20.322Z,5.22
2018-02-12T18:35:48.613Z,4.40
2018-02-12T18:38:16.279Z,4.50
2018-02-12T18:40:43.982Z,5.18
2018-02-12T18:43:11.495Z,4.55
2018-02-12T18:45:40.928Z,5.25
2018-02-12T18:48:08.448Z,6.12
2018-02-12T18:50:36.750Z,5.07
2018-02-12T18:53:04.355Z,4.82
2018-02-12T18:55:31.882Z,5.07
2018-02-12T18:57:59.444Z,5.47
2018-02-12T19:00:27.763Z,4.57
2018-02-12T19:02:55.379Z,4.12
2018-02-12T19:05:23.668Z,6.18
2018-02-12T19:07:51.986Z,4.90
2018-02-12T19:10:19.486Z,3.60
2018-02-12T19:12:47.030Z,5.55
2018-02-12T19:15:14.573Z,5.20
2018-02-12T19:17:42.109Z,5.15
2018-02-12T19:20:10.391Z,4.95
2018-02-12T19:22:38.662Z,5.40
2018-02-12T19:25:06.946Z,5.20
2018-02-12T19:27:35.219Z,6.43
2018-02-12T19:30:04.510Z,5.43
2018-02-12T19:32:31.997Z,5.50
2018-02-12T19:35:00.314Z,5.95
2018-02-12T19:37:27.926Z,5.82
2018-02-12T19:39:55.477Z,4.87
2018-02-12T19:42:23.013Z,5.57
2018-02-12T19:44:51.192Z,5.62
2018-02-12T19:47:18.702Z,6.32
2018-02-12T19:49:47.419Z,5.65
2018-02-12T19:52:14.918Z,6.15
2018-02-12T19:54:42.435Z,7.35
2018-02-12T19:57:10.713Z,5.87
2018-02-12T19:59:39.000Z,6.45
2018-02-12T20:02:06.559Z,6.80
2018-02-12T20:04:34.840Z,6.28
2018-02-12T20:07:03.131Z,5.05
2018-02-12T20:09:30.655Z,6.28
2018-02-12T20:11:58.184Z,5.68
2018-02-12T20:14:25.694Z,4.95
2018-02-12T20:16:54.041Z,6.00
2018-02-12T20:19:21.560Z,6.45
2018-02-12T20:21:49.066Z,7.00
2018-02-12T20:24:16.641Z,5.55
2018-02-12T20:26:44.208Z,5.95
2018-02-12T20:29:11.737Z,6.57
2018-02-12T20:31:39.258Z,6.20
2018-02-12T20:34:07.551Z,5.70
2018-02-12T20:36:36.037Z,6.32
2018-02-12T20:39:04.355Z,6.10
2018-02-12T20:41:31.911Z,5.65
2018-02-12T20:43:59.432Z,5.20
2018-02-12T20:46:26.992Z,6.68
2018-02-12T20:48:54.622Z,5.65
2018-02-12T20:51:22.249Z,6.95
2018-02-12T20:53:50.508Z,5.53
2018-02-12T20:56:18.869Z,6.30
2018-02-12T20:58:46.525Z,7.12
2018-02-12T21:01:14.125Z,6.35
2018-02-12T21:03:44.083Z,5.93
2018-02-12T21:06:11.627Z,7.97
2018-02-12T21:08:39.332Z,6.55
2018-02-12T21:11:07.897Z,5.87
2018-02-12T21:13:35.918Z,6.97
2018-02-12T21:16:04.255Z,6.20
2018-02-12T21:18:31.804Z,6.72
2018-02-12T21:21:00.084Z,8.07
2018-02-12T21:23:28.617Z,6.07
2018-02-12T21:25:56.121Z,6.43
2018-02-12T21:28:24.425Z,5.18
2018-02-12T21:30:51.994Z,5.80
2018-02-12T21:33:19.584Z,6.30
2018-02-12T21:35:48.002Z,6.22
2018-02-12T21:38:15.617Z,6.30
2018-02-12T21:40:43.183Z,6.55
2018-02-12T21:43:11.424Z,6.53
2018-02-12T21:45:38.917Z,6.72
2018-02-12T21:48:06.787Z,6.30
2018-02-12T21:50:34.329Z,5.65
2018-02-12T21:53:02.825Z,5.85
2018-02-12T21:55:30.329Z,7.07
2018-02-12T21:57:57.838Z,6.62
2018-02-12T22:00:26.169Z,5.47
2018-02-12T22:02:53.694Z,5.55
2018-02-12T22:05:21.967Z,7.22
2018-02-12T22:07:50.246Z,5.65
2018-02-12T22:10:19.540Z,5.70
2018-02-12T22:12:47.084Z,5.50
2018-02-12T22:15:14.625Z,6.03
2018-02-12T22:17:42.149Z,5.72
2018-02-12T22:20:10.461Z,6.00
2018-02-12T22:22:37.998Z,6.12
2018-02-12T22:25:06.262Z,4.57
2018-02-12T22:27:34.533Z,5.00
2018-02-12T22:30:02.030Z,5.57
2018-02-12T22:32:29.539Z,5.53
2018-02-12T22:34:58.925Z,5.80
2018-02-12T22:37:26.428Z,6.20
2018-02-12T22:39:53.951Z,5.25
2018-02-12T22:42:21.462Z,6.45
2018-02-12T22:44:49.058Z,6.97
2018-02-12T22:47:16.600Z,6.80
2018-02-12T22:49:44.903Z,6.97
2018-02-12T22:52:12.416Z,5.90
2018-02-12T22:54:41.125Z,6.72
2018-02-12T22:57:08.638Z,7.03
2018-02-12T22:59:36.180Z,7.07
2018-02-12T23:02:03.677Z,5.43
2018-02-12T23:04:31.225Z,6.72
2018-02-12T23:06:58.768Z,5.68
2018-02-12T23:09:26.484Z,6.30
2018-02-12T23:11:53.989Z,7.35
2018-02-12T23:14:22.257Z,6.25
2018-02-12T23:16:56.245Z,5.18
2018-02-12T23:19:25.434Z,6.43
2018-02-12T23:21:52.930Z,5.00
2018-02-12T23:24:21.046Z,5.30
2018-02-12T23:26:48.574Z,6.75
2018-02-12T23:29:16.850Z,5.85
2018-02-12T23:31:44.365Z,5.40
2018-02-12T23:34:12.004Z,5.80
2018-02-12T23:36:39.765Z,6.62
2018-02-12T23:39:07.321Z,6.22
2018-02-12T23:41:35.582Z,7.07
2018-02-12T23:44:03.300Z,8.65
2018-02-12T23:46:32.364Z,6.53
2018-02-12T23:49:00.641Z,5.78
2018-02-12T23:51:29.174Z,5.93
2018-02-12T23:53:56.693Z,5.28
2018-02-12T23:56:24.270Z,6.43
2018-02-12T23:58:52.544Z,5.62
